An Xiu Shan — BRQV — position and weather

sailwx.info

Track history (hours):
 
Tides and Currents Weather Stations Pressure Air Temp Water Temp Dewpoint Dewpoint Depression Visibility Wind Speed Wind Dir Waves Ship Positions

An Xiu Shan

Last reported at 2015-Feb-26 03:30 UTC. Time now 2015-Feb-27 00:37 UTC.
Position N 22°45' E 116°43'.

Length 199 m; draft 12.5 m.

Type: Cargo ship. MMSI: 413195000.

Date/timePositionNaut miles runAvg speedWind from/ knotsBaromVisibWave heightAir tempDewpointWater temp
2015-Feb-26 03:30N 22°45' E 116°43'8210.2
2015-Feb-25 19:29N 23°34' E 117°54'9 9.2
2015-Feb-25 18:33N 23°40' E 118°01'9 9.1
2015-Feb-25 17:33N 23°46' E 118°08'9 9.1
2015-Feb-25 16:33N 23°52' E 118°15'9 9.0
2015-Feb-25 15:33N 23°57' E 118°24'42 9.9
2015-Feb-25 11:20N 24°24' E 118°59'1210.3
2015-Feb-25 10:07N 24°32' E 119°10'610.9
2015-Feb-25 09:31N 24°36' E 119°15'32910.2
2015-Feb-24 01:25N 29°12' E 122°36'2511.0
2015-Feb-23 23:07N 29°35' E 122°47'1710.7
2015-Feb-23 21:33N 29°51' E 122°54'45910.2
2015-Feb-22 00:31N 37°30' E 122°43'8 8.5
2015-Feb-21 23:33N 37°36' E 122°36'10 9.1
2015-Feb-21 22:25N 37°43' E 122°27'910.0
2015-Feb-21 21:31N 37°49' E 122°19'13010.6
2015-Feb-21 09:12N 38°43' E 119°48'75 2.7
2015-Feb-20 05:04N 38°47' E 118°12'510.1
2015-Feb-20 04:33N 38°49' E 118°05'10 9.9
2015-Feb-20 03:33N 38°54' E 117°55'9 8.9
2015-Feb-20 02:33N 38°57' E 117°44'0 0.3
2015-Feb-20 01:29N 38°57' E 117°44'0 0.0
2015-Feb-20 00:29N 38°57' E 117°44'0 0.0
2015-Feb-19 23:23N 38°57' E 117°44'0 0.0
2015-Feb-19 22:23N 38°57' E 117°44'0 0.0
2015-Feb-19 21:29N 38°57' E 117°44'0 0.0
2015-Feb-19 20:29N 38°57' E 117°44'0 0.0
2015-Feb-19 19:29N 38°57' E 117°44'0 0.0
2015-Feb-19 18:29N 38°57' E 117°44'0 0.0
2015-Feb-19 17:29N 38°57' E 117°44'0 0.0
2015-Feb-19 16:29N 38°57' E 117°44'0 0.0
2015-Feb-19 15:29N 38°57' E 117°44'0 0.0
2015-Feb-19 14:29N 38°57' E 117°44'0 0.0
2015-Feb-19 13:29N 38°57' E 117°44'0 0.0
2015-Feb-19 12:23N 38°57' E 117°44'0 0.0
2015-Feb-19 11:29N 38°57' E 117°44'0 0.0
2015-Feb-19 10:23N 38°57' E 117°44'0 0.0
2015-Feb-19 09:29N 38°57' E 117°44'0 0.0
2015-Feb-19 08:29N 38°57' E 117°44'0 0.0
2015-Feb-19 07:29N 38°57' E 117°44'0 0.0
2015-Feb-19 06:29N 38°57' E 117°44'0 0.0
2015-Feb-19 05:29N 38°57' E 117°44'0 0.0
2015-Feb-19 04:29N 38°57' E 117°44'0 0.0
2015-Feb-19 03:29N 38°57' E 117°44'0 0.0
2015-Feb-19 02:29N 38°57' E 117°44'0 0.0
2015-Feb-19 01:29N 38°57' E 117°44'0 0.0
2015-Feb-19 00:29N 38°57' E 117°44'0 0.0
2015-Feb-18 23:29N 38°57' E 117°44'0 0.0
2015-Feb-18 22:29N 38°57' E 117°44'0 0.0
2015-Feb-18 21:29N 38°57' E 117°44'0 0.0
2015-Feb-18 20:29N 38°57' E 117°44'0 0.0
2015-Feb-18 19:29N 38°57' E 117°44'0 0.0
2015-Feb-18 18:29N 38°57' E 117°44'0 0.0
2015-Feb-18 17:29N 38°57' E 117°44'0 0.0
2015-Feb-18 16:29N 38°57' E 117°44'0 0.0
2015-Feb-18 15:17N 38°57' E 117°44'0 0.0
2015-Feb-18 14:29N 38°57' E 117°44'0 0.0
2015-Feb-18 13:23N 38°57' E 117°44'0 0.0
2015-Feb-18 12:29N 38°57' E 117°44'0 0.0
2015-Feb-18 11:29N 38°57' E 117°44'0 0.0
2015-Feb-18 10:29N 38°57' E 117°44'0 0.0
2015-Feb-18 09:29N 38°57' E 117°44'0 0.0
2015-Feb-18 08:29N 38°57' E 117°44'0 0.0
2015-Feb-18 07:29N 38°57' E 117°44'0 0.0
2015-Feb-18 06:23N 38°57' E 117°44'0 0.0
2015-Feb-18 05:29N 38°57' E 117°44'0 0.0
2015-Feb-18 04:29N 38°57' E 117°44'0 0.0
2015-Feb-18 03:29N 38°57' E 117°44'0 0.0
2015-Feb-18 02:29N 38°57' E 117°44'0 0.0
2015-Feb-18 00:23N 38°57' E 117°44'0 0.0
2015-Feb-17 23:29N 38°57' E 117°44'0 0.0
2015-Feb-17 22:29N 38°57' E 117°44'0 0.0
2015-Feb-17 21:29N 38°57' E 117°44'0 0.0
2015-Feb-17 20:23N 38°57' E 117°44'0 0.0
2015-Feb-17 19:29N 38°57' E 117°44'0 0.0
2015-Feb-17 17:29N 38°57' E 117°44'0 0.0
2015-Feb-17 16:29N 38°57' E 117°44'0 0.0
2015-Feb-17 15:29N 38°57' E 117°44'0 0.0
2015-Feb-17 14:29N 38°57' E 117°44'0 0.0
2015-Feb-17 13:29N 38°57' E 117°44'0 0.0
2015-Feb-17 12:29N 38°57' E 117°44'0 0.0
2015-Feb-17 11:29N 38°57' E 117°44'2 2.4
2015-Feb-17 10:33N 38°57' E 117°47'1210.4
2015-Feb-17 09:22N 38°51' E 118°01'4 1.9
2015-Feb-17 07:23N 38°50' E 118°06'0 0.1
2015-Feb-17 06:23N 38°50' E 118°06'0 0.1
2015-Feb-17 05:11N 38°50' E 118°05'0 0.0
2015-Feb-17 03:29N 38°50' E 118°05'0 0.0
2015-Feb-17 02:29N 38°50' E 118°05'0 0.0
2015-Feb-17 01:23N 38°50' E 118°05'2 2.9
2015-Feb-17 00:33N 38°49' E 118°08'8110.1
2015-Feb-16 16:30N 38°44' E 119°52'11410.1
2015-Feb-16 05:13N 38°00' E 122°06'6 8.9
2015-Feb-16 04:33N 37°57' E 122°12'  
Track history (hours):
 
Tides and Currents Weather Stations Pressure Air Temp Water Temp Dewpoint Dewpoint Depression Visibility Wind Speed Wind Dir Waves Ship Positions

An Xiu Shan

Last reported at 2015-Feb-26 03:30 UTC. Time now 2015-Feb-27 00:37 UTC.
Position N 22°45' E 116°43'.

Length 199 m; draft 12.5 m.

Type: Cargo ship. MMSI: 413195000.

Date/timePositionNaut miles runAvg speedWind from/ knotsBaromVisibWave heightAir tempDewpointWater temp
2015-Feb-26 03:30N 22°45' E 116°43'8210.2
2015-Feb-25 19:29N 23°34' E 117°54'9 9.2
2015-Feb-25 18:33N 23°40' E 118°01'9 9.1
2015-Feb-25 17:33N 23°46' E 118°08'9 9.1
2015-Feb-25 16:33N 23°52' E 118°15'9 9.0
2015-Feb-25 15:33N 23°57' E 118°24'42 9.9
2015-Feb-25 11:20N 24°24' E 118°59'1210.3
2015-Feb-25 10:07N 24°32' E 119°10'610.9
2015-Feb-25 09:31N 24°36' E 119°15'32910.2
2015-Feb-24 01:25N 29°12' E 122°36'2511.0
2015-Feb-23 23:07N 29°35' E 122°47'1710.7
2015-Feb-23 21:33N 29°51' E 122°54'45910.2
2015-Feb-22 00:31N 37°30' E 122°43'8 8.5
2015-Feb-21 23:33N 37°36' E 122°36'10 9.1
2015-Feb-21 22:25N 37°43' E 122°27'910.0
2015-Feb-21 21:31N 37°49' E 122°19'13010.6
2015-Feb-21 09:12N 38°43' E 119°48'75 2.7
2015-Feb-20 05:04N 38°47' E 118°12'510.1
2015-Feb-20 04:33N 38°49' E 118°05'10 9.9
2015-Feb-20 03:33N 38°54' E 117°55'9 8.9
2015-Feb-20 02:33N 38°57' E 117°44'0 0.3
2015-Feb-20 01:29N 38°57' E 117°44'0 0.0
2015-Feb-20 00:29N 38°57' E 117°44'0 0.0
2015-Feb-19 23:23N 38°57' E 117°44'0 0.0
2015-Feb-19 22:23N 38°57' E 117°44'0 0.0
2015-Feb-19 21:29N 38°57' E 117°44'0 0.0
2015-Feb-19 20:29N 38°57' E 117°44'0 0.0
2015-Feb-19 19:29N 38°57' E 117°44'0 0.0
2015-Feb-19 18:29N 38°57' E 117°44'0 0.0
2015-Feb-19 17:29N 38°57' E 117°44'0 0.0
2015-Feb-19 16:29N 38°57' E 117°44'0 0.0
2015-Feb-19 15:29N 38°57' E 117°44'0 0.0
2015-Feb-19 14:29N 38°57' E 117°44'0 0.0
2015-Feb-19 13:29N 38°57' E 117°44'0 0.0
2015-Feb-19 12:23N 38°57' E 117°44'0 0.0
2015-Feb-19 11:29N 38°57' E 117°44'0 0.0
2015-Feb-19 10:23N 38°57' E 117°44'0 0.0
2015-Feb-19 09:29N 38°57' E 117°44'0 0.0
2015-Feb-19 08:29N 38°57' E 117°44'0 0.0
2015-Feb-19 07:29N 38°57' E 117°44'0 0.0
2015-Feb-19 06:29N 38°57' E 117°44'0 0.0
2015-Feb-19 05:29N 38°57' E 117°44'0 0.0
2015-Feb-19 04:29N 38°57' E 117°44'0 0.0
2015-Feb-19 03:29N 38°57' E 117°44'0 0.0
2015-Feb-19 02:29N 38°57' E 117°44'0 0.0
2015-Feb-19 01:29N 38°57' E 117°44'0 0.0
2015-Feb-19 00:29N 38°57' E 117°44'0 0.0
2015-Feb-18 23:29N 38°57' E 117°44'0 0.0
2015-Feb-18 22:29N 38°57' E 117°44'0 0.0
2015-Feb-18 21:29N 38°57' E 117°44'0 0.0
2015-Feb-18 20:29N 38°57' E 117°44'0 0.0
2015-Feb-18 19:29N 38°57' E 117°44'0 0.0
2015-Feb-18 18:29N 38°57' E 117°44'0 0.0
2015-Feb-18 17:29N 38°57' E 117°44'0 0.0
2015-Feb-18 16:29N 38°57' E 117°44'0 0.0
2015-Feb-18 15:17N 38°57' E 117°44'0 0.0
2015-Feb-18 14:29N 38°57' E 117°44'0 0.0
2015-Feb-18 13:23N 38°57' E 117°44'0 0.0
2015-Feb-18 12:29N 38°57' E 117°44'0 0.0
2015-Feb-18 11:29N 38°57' E 117°44'0 0.0
2015-Feb-18 10:29N 38°57' E 117°44'0 0.0
2015-Feb-18 09:29N 38°57' E 117°44'0 0.0
2015-Feb-18 08:29N 38°57' E 117°44'0 0.0
2015-Feb-18 07:29N 38°57' E 117°44'0 0.0
2015-Feb-18 06:23N 38°57' E 117°44'0 0.0
2015-Feb-18 05:29N 38°57' E 117°44'0 0.0
2015-Feb-18 04:29N 38°57' E 117°44'0 0.0
2015-Feb-18 03:29N 38°57' E 117°44'0 0.0
2015-Feb-18 02:29N 38°57' E 117°44'0 0.0
2015-Feb-18 00:23N 38°57' E 117°44'0 0.0
2015-Feb-17 23:29N 38°57' E 117°44'0 0.0
2015-Feb-17 22:29N 38°57' E 117°44'0 0.0
2015-Feb-17 21:29N 38°57' E 117°44'0 0.0
2015-Feb-17 20:23N 38°57' E 117°44'0 0.0
2015-Feb-17 19:29N 38°57' E 117°44'0 0.0
2015-Feb-17 17:29N 38°57' E 117°44'0 0.0
2015-Feb-17 16:29N 38°57' E 117°44'0 0.0
2015-Feb-17 15:29N 38°57' E 117°44'0 0.0
2015-Feb-17 14:29N 38°57' E 117°44'0 0.0
2015-Feb-17 13:29N 38°57' E 117°44'0 0.0
2015-Feb-17 12:29N 38°57' E 117°44'0 0.0
2015-Feb-17 11:29N 38°57' E 117°44'2 2.4
2015-Feb-17 10:33N 38°57' E 117°47'1210.4
2015-Feb-17 09:22N 38°51' E 118°01'4 1.9
2015-Feb-17 07:23N 38°50' E 118°06'0 0.1
2015-Feb-17 06:23N 38°50' E 118°06'0 0.1
2015-Feb-17 05:11N 38°50' E 118°05'0 0.0
2015-Feb-17 03:29N 38°50' E 118°05'0 0.0
2015-Feb-17 02:29N 38°50' E 118°05'0 0.0
2015-Feb-17 01:23N 38°50' E 118°05'2 2.9
2015-Feb-17 00:33N 38°49' E 118°08'8110.1
2015-Feb-16 16:30N 38°44' E 119°52'11410.1
2015-Feb-16 05:13N 38°00' E 122°06'6 8.9
2015-Feb-16 04:33N 37°57' E 122°12'  

Dump ship's entire track history